sensor_id;sensor_type;location;lat;lon;timestamp;P1;durP1;ratioP1;P2;durP2;ratioP2
12762;SDS011;6445;52.490;13.378;2023-06-19T00:01:55;11.45;;;10.27;;
12762;SDS011;6445;52.490;13.378;2023-06-19T00:04:21;12.07;;;10.60;;
12762;SDS011;6445;52.490;13.378;2023-06-19T00:06:46;11.25;;;10.18;;
12762;SDS011;6445;52.490;13.378;2023-06-19T00:09:11;11.90;;;10.80;;
12762;SDS011;6445;52.490;13.378;2023-06-19T00:11:36;11.65;;;10.55;;
12762;SDS011;6445;52.490;13.378;2023-06-19T00:14:02;11.88;;;10.68;;
12762;SDS011;6445;52.490;13.378;2023-06-19T00:16:27;12.02;;;10.93;;
12762;SDS011;6445;52.490;13.378;2023-06-19T00:18:53;11.15;;;10.05;;
12762;SDS011;6445;52.490;13.378;2023-06-19T00:21:20;11.63;;;10.63;;
12762;SDS011;6445;52.490;13.378;2023-06-19T00:23:49;11.77;;;10.68;;
12762;SDS011;6445;52.490;13.378;2023-06-19T00:26:14;11.32;;;10.25;;
12762;SDS011;6445;52.490;13.378;2023-06-19T00:28:39;11.40;;;10.30;;
12762;SDS011;6445;52.490;13.378;2023-06-19T00:31:06;11.38;;;10.13;;
12762;SDS011;6445;52.490;13.378;2023-06-19T00:33:31;11.50;;;10.48;;
12762;SDS011;6445;52.490;13.378;2023-06-19T00:35:57;11.57;;;10.48;;
12762;SDS011;6445;52.490;13.378;2023-06-19T00:38:22;11.35;;;10.25;;
12762;SDS011;6445;52.490;13.378;2023-06-19T00:40:48;10.93;;;9.93;;
12762;SDS011;6445;52.490;13.378;2023-06-19T00:43:13;11.60;;;10.50;;
12762;SDS011;6445;52.490;13.378;2023-06-19T00:45:39;12.02;;;10.82;;
12762;SDS011;6445;52.490;13.378;2023-06-19T00:48:04;10.57;;;9.57;;
12762;SDS011;6445;52.490;13.378;2023-06-19T00:50:29;11.55;;;10.32;;
12762;SDS011;6445;52.490;13.378;2023-06-19T00:52:55;10.90;;;9.90;;
12762;SDS011;6445;52.490;13.378;2023-06-19T00:55:20;11.63;;;10.55;;
12762;SDS011;6445;52.490;13.378;2023-06-19T00:57:46;12.00;;;11.00;;
12762;SDS011;6445;52.490;13.378;2023-06-19T01:00:11;12.30;;;11.10;;
12762;SDS011;6445;52.490;13.378;2023-06-19T01:02:38;11.85;;;10.75;;
12762;SDS011;6445;52.490;13.378;2023-06-19T01:05:03;12.07;;;10.98;;
12762;SDS011;6445;52.490;13.378;2023-06-19T01:07:35;11.88;;;10.77;;
12762;SDS011;6445;52.490;13.378;2023-06-19T01:10:28;13.00;;;11.75;;
12762;SDS011;6445;52.490;13.378;2023-06-19T01:13:01;12.82;;;11.38;;
12762;SDS011;6445;52.490;13.378;2023-06-19T01:15:30;12.18;;;11.07;;
12762;SDS011;6445;52.490;13.378;2023-06-19T01:17:57;12.50;;;11.38;;
12762;SDS011;6445;52.490;13.378;2023-06-19T01:20:24;12.43;;;11.32;;
12762;SDS011;6445;52.490;13.378;2023-06-19T01:22:50;12.15;;;11.13;;
12762;SDS011;6445;52.490;13.378;2023-06-19T01:25:15;12.70;;;11.27;;
12762;SDS011;6445;52.490;13.378;2023-06-19T01:27:41;12.38;;;11.25;;
12762;SDS011;6445;52.490;13.378;2023-06-19T01:30:10;12.07;;;10.90;;
12762;SDS011;6445;52.490;13.378;2023-06-19T01:32:53;12.80;;;11.57;;
12762;SDS011;6445;52.490;13.378;2023-06-19T01:35:27;13.02;;;11.73;;
12762;SDS011;6445;52.490;13.378;2023-06-19T01:37:54;11.98;;;10.88;;
12762;SDS011;6445;52.490;13.378;2023-06-19T01:40:19;23.38;;;20.77;;
12762;SDS011;6445;52.490;13.378;2023-06-19T01:42:50;12.95;;;11.65;;
12762;SDS011;6445;52.490;13.378;2023-06-19T01:45:17;12.95;;;11.65;;
12762;SDS011;6445;52.490;13.378;2023-06-19T01:47:43;13.55;;;12.30;;
12762;SDS011;6445;52.490;13.378;2023-06-19T01:50:09;13.13;;;11.93;;
12762;SDS011;6445;52.490;13.378;2023-06-19T01:52:35;12.90;;;11.70;;
12762;SDS011;6445;52.490;13.378;2023-06-19T01:55:01;13.48;;;12.07;;
12762;SDS011;6445;52.490;13.378;2023-06-19T01:57:27;12.80;;;11.60;;
12762;SDS011;6445;52.490;13.378;2023-06-19T01:59:52;14.40;;;13.02;;
12762;SDS011;6445;52.490;13.378;2023-06-19T02:02:18;13.43;;;12.23;;
12762;SDS011;6445;52.490;13.378;2023-06-19T02:04:43;13.52;;;12.30;;
12762;SDS011;6445;52.490;13.378;2023-06-19T02:07:08;14.50;;;13.15;;
12762;SDS011;6445;52.490;13.378;2023-06-19T02:09:33;13.88;;;12.52;;
12762;SDS011;6445;52.490;13.378;2023-06-19T02:11:59;13.48;;;12.18;;
12762;SDS011;6445;52.490;13.378;2023-06-19T02:14:24;15.23;;;13.68;;
12762;SDS011;6445;52.490;13.378;2023-06-19T02:16:49;14.27;;;12.88;;
12762;SDS011;6445;52.490;13.378;2023-06-19T02:19:14;14.23;;;12.93;;
12762;SDS011;6445;52.490;13.378;2023-06-19T02:21:40;13.60;;;12.40;;
12762;SDS011;6445;52.490;13.378;2023-06-19T02:24:05;15.50;;;14.10;;
12762;SDS011;6445;52.490;13.378;2023-06-19T02:26:31;14.10;;;12.70;;
12762;SDS011;6445;52.490;13.378;2023-06-19T02:28:56;14.05;;;12.75;;
12762;SDS011;6445;52.490;13.378;2023-06-19T02:31:21;14.05;;;12.75;;
12762;SDS011;6445;52.490;13.378;2023-06-19T02:33:47;15.77;;;13.05;;
12762;SDS011;6445;52.490;13.378;2023-06-19T02:36:12;13.98;;;12.68;;
12762;SDS011;6445;52.490;13.378;2023-06-19T02:38:38;13.98;;;12.65;;
12762;SDS011;6445;52.490;13.378;2023-06-19T02:41:03;15.13;;;13.82;;
12762;SDS011;6445;52.490;13.378;2023-06-19T02:43:29;13.75;;;12.45;;
12762;SDS011;6445;52.490;13.378;2023-06-19T02:45:54;14.85;;;13.43;;
12762;SDS011;6445;52.490;13.378;2023-06-19T02:48:20;14.25;;;12.95;;
12762;SDS011;6445;52.490;13.378;2023-06-19T02:50:45;13.40;;;12.20;;
12762;SDS011;6445;52.490;13.378;2023-06-19T02:53:10;15.25;;;13.85;;
12762;SDS011;6445;52.490;13.378;2023-06-19T02:55:36;14.35;;;13.05;;
12762;SDS011;6445;52.490;13.378;2023-06-19T02:58:01;14.35;;;13.05;;
12762;SDS011;6445;52.490;13.378;2023-06-19T03:00:26;15.45;;;13.73;;
12762;SDS011;6445;52.490;13.378;2023-06-19T03:02:53;14.77;;;13.40;;
12762;SDS011;6445;52.490;13.378;2023-06-19T03:05:18;15.00;;;13.60;;
12762;SDS011;6445;52.490;13.378;2023-06-19T03:07:44;14.23;;;12.93;;
12762;SDS011;6445;52.490;13.378;2023-06-19T03:10:09;15.82;;;14.40;;
12762;SDS011;6445;52.490;13.378;2023-06-19T03:12:35;15.55;;;14.07;;
12762;SDS011;6445;52.490;13.378;2023-06-19T03:17:28;17.02;;;13.18;;
12762;SDS011;6445;52.490;13.378;2023-06-19T03:19:53;14.63;;;13.13;;
12762;SDS011;6445;52.490;13.378;2023-06-19T03:22:19;14.75;;;13.43;;
12762;SDS011;6445;52.490;13.378;2023-06-19T03:24:45;15.50;;;14.00;;
12762;SDS011;6445;52.490;13.378;2023-06-19T03:27:10;15.10;;;13.70;;
12762;SDS011;6445;52.490;13.378;2023-06-19T03:29:36;14.45;;;13.15;;
12762;SDS011;6445;52.490;13.378;2023-06-19T03:32:01;15.02;;;13.73;;
12762;SDS011;6445;52.490;13.378;2023-06-19T03:34:26;14.85;;;13.50;;
12762;SDS011;6445;52.490;13.378;2023-06-19T03:36:51;15.50;;;14.00;;
12762;SDS011;6445;52.490;13.378;2023-06-19T03:39:17;15.40;;;14.00;;
12762;SDS011;6445;52.490;13.378;2023-06-19T03:41:42;15.48;;;13.88;;
12762;SDS011;6445;52.490;13.378;2023-06-19T03:44:07;14.95;;;13.65;;
12762;SDS011;6445;52.490;13.378;2023-06-19T03:46:33;15.82;;;14.30;;
12762;SDS011;6445;52.490;13.378;2023-06-19T03:48:58;14.52;;;13.25;;
12762;SDS011;6445;52.490;13.378;2023-06-19T03:51:23;14.90;;;13.50;;
12762;SDS011;6445;52.490;13.378;2023-06-19T03:53:48;14.02;;;12.65;;
12762;SDS011;6445;52.490;13.378;2023-06-19T03:56:15;14.98;;;13.63;;
12762;SDS011;6445;52.490;13.378;2023-06-19T03:58:40;14.30;;;13.02;;
12762;SDS011;6445;52.490;13.378;2023-06-19T04:01:05;16.38;;;13.77;;
12762;SDS011;6445;52.490;13.378;2023-06-19T04:03:31;15.38;;;13.88;;
12762;SDS011;6445;52.490;13.378;2023-06-19T04:05:56;15.07;;;13.77;;
12762;SDS011;6445;52.490;13.378;2023-06-19T04:08:21;15.73;;;14.23;;
12762;SDS011;6445;52.490;13.378;2023-06-19T04:10:46;16.20;;;14.70;;
12762;SDS011;6445;52.490;13.378;2023-06-19T04:13:12;16.27;;;14.68;;
12762;SDS011;6445;52.490;13.378;2023-06-19T04:15:37;16.00;;;14.13;;
12762;SDS011;6445;52.490;13.378;2023-06-19T04:18:03;15.10;;;13.70;;
12762;SDS011;6445;52.490;13.378;2023-06-19T04:20:28;17.38;;;14.05;;
12762;SDS011;6445;52.490;13.378;2023-06-19T04:22:53;15.45;;;14.05;;
12762;SDS011;6445;52.490;13.378;2023-06-19T04:25:19;15.40;;;13.90;;
12762;SDS011;6445;52.490;13.378;2023-06-19T04:27:44;15.68;;;13.95;;
12762;SDS011;6445;52.490;13.378;2023-06-19T04:30:12;14.93;;;13.55;;
12762;SDS011;6445;52.490;13.378;2023-06-19T04:32:37;15.45;;;14.05;;
12762;SDS011;6445;52.490;13.378;2023-06-19T04:35:06;15.35;;;13.88;;
12762;SDS011;6445;52.490;13.378;2023-06-19T04:37:32;15.85;;;14.25;;
12762;SDS011;6445;52.490;13.378;2023-06-19T04:39:58;16.67;;;14.98;;
12762;SDS011;6445;52.490;13.378;2023-06-19T04:42:23;15.77;;;14.38;;
12762;SDS011;6445;52.490;13.378;2023-06-19T04:44:49;15.73;;;14.32;;
12762;SDS011;6445;52.490;13.378;2023-06-19T04:47:20;16.58;;;15.02;;
12762;SDS011;6445;52.490;13.378;2023-06-19T04:49:47;16.60;;;14.90;;
12762;SDS011;6445;52.490;13.378;2023-06-19T04:52:12;16.00;;;14.60;;
12762;SDS011;6445;52.490;13.378;2023-06-19T04:54:37;15.82;;;14.32;;
12762;SDS011;6445;52.490;13.378;2023-06-19T04:57:03;16.25;;;14.75;;
12762;SDS011;6445;52.490;13.378;2023-06-19T04:59:29;15.32;;;13.82;;
12762;SDS011;6445;52.490;13.378;2023-06-19T05:01:55;16.55;;;14.52;;
12762;SDS011;6445;52.490;13.378;2023-06-19T05:04:21;15.82;;;14.40;;
12762;SDS011;6445;52.490;13.378;2023-06-19T05:06:49;16.67;;;15.00;;
12762;SDS011;6445;52.490;13.378;2023-06-19T05:09:15;15.82;;;14.32;;
12762;SDS011;6445;52.490;13.378;2023-06-19T05:11:41;17.92;;;14.95;;
12762;SDS011;6445;52.490;13.378;2023-06-19T05:14:06;15.50;;;14.13;;
12762;SDS011;6445;52.490;13.378;2023-06-19T05:16:33;17.15;;;14.93;;
12762;SDS011;6445;52.490;13.378;2023-06-19T05:18:58;16.27;;;14.65;;
12762;SDS011;6445;52.490;13.378;2023-06-19T05:21:23;16.80;;;15.30;;
12762;SDS011;6445;52.490;13.378;2023-06-19T05:23:49;16.48;;;14.57;;
12762;SDS011;6445;52.490;13.378;2023-06-19T05:26:19;15.60;;;14.10;;
12762;SDS011;6445;52.490;13.378;2023-06-19T05:28:44;15.90;;;14.43;;
12762;SDS011;6445;52.490;13.378;2023-06-19T05:31:10;16.90;;;15.27;;
12762;SDS011;6445;52.490;13.378;2023-06-19T05:33:35;16.10;;;14.48;;
12762;SDS011;6445;52.490;13.378;2023-06-19T05:36:00;16.40;;;14.93;;
12762;SDS011;6445;52.490;13.378;2023-06-19T05:38:26;16.77;;;15.18;;
12762;SDS011;6445;52.490;13.378;2023-06-19T05:40:53;19.00;;;17.10;;
12762;SDS011;6445;52.490;13.378;2023-06-19T05:43:18;17.60;;;15.90;;
12762;SDS011;6445;52.490;13.378;2023-06-19T05:45:44;17.50;;;15.73;;
12762;SDS011;6445;52.490;13.378;2023-06-19T05:48:09;17.17;;;15.50;;
12762;SDS011;6445;52.490;13.378;2023-06-19T05:50:34;18.63;;;16.48;;
12762;SDS011;6445;52.490;13.378;2023-06-19T05:52:59;17.17;;;15.55;;
12762;SDS011;6445;52.490;13.378;2023-06-19T05:55:25;16.85;;;15.07;;
12762;SDS011;6445;52.490;13.378;2023-06-19T05:57:52;17.25;;;15.63;;
12762;SDS011;6445;52.490;13.378;2023-06-19T06:00:17;16.67;;;15.13;;
12762;SDS011;6445;52.490;13.378;2023-06-19T06:02:42;17.35;;;15.55;;
12762;SDS011;6445;52.490;13.378;2023-06-19T06:05:08;16.10;;;14.63;;
12762;SDS011;6445;52.490;13.378;2023-06-19T06:07:34;16.67;;;14.85;;
12762;SDS011;6445;52.490;13.378;2023-06-19T06:09:59;16.98;;;15.32;;
12762;SDS011;6445;52.490;13.378;2023-06-19T06:12:24;16.20;;;14.70;;
12762;SDS011;6445;52.490;13.378;2023-06-19T06:14:49;16.65;;;15.05;;
12762;SDS011;6445;52.490;13.378;2023-06-19T06:17:15;17.42;;;15.82;;
12762;SDS011;6445;52.490;13.378;2023-06-19T06:19:40;17.92;;;16.05;;
12762;SDS011;6445;52.490;13.378;2023-06-19T06:22:05;17.90;;;15.35;;
12762;SDS011;6445;52.490;13.378;2023-06-19T06:24:30;16.95;;;15.13;;
12762;SDS011;6445;52.490;13.378;2023-06-19T06:26:56;17.77;;;15.98;;
12762;SDS011;6445;52.490;13.378;2023-06-19T06:29:21;18.02;;;16.02;;
12762;SDS011;6445;52.490;13.378;2023-06-19T06:31:46;21.23;;;16.95;;
12762;SDS011;6445;52.490;13.378;2023-06-19T06:34:12;17.73;;;15.45;;
12762;SDS011;6445;52.490;13.378;2023-06-19T06:36:38;18.05;;;16.13;;
12762;SDS011;6445;52.490;13.378;2023-06-19T06:39:03;17.52;;;15.80;;
12762;SDS011;6445;52.490;13.378;2023-06-19T06:41:28;18.42;;;16.50;;
12762;SDS011;6445;52.490;13.378;2023-06-19T06:43:54;16.90;;;15.18;;
12762;SDS011;6445;52.490;13.378;2023-06-19T06:46:20;17.67;;;15.77;;
12762;SDS011;6445;52.490;13.378;2023-06-19T06:48:45;17.70;;;16.00;;
12762;SDS011;6445;52.490;13.378;2023-06-19T06:51:10;18.15;;;16.35;;
12762;SDS011;6445;52.490;13.378;2023-06-19T06:53:36;17.02;;;15.32;;
12762;SDS011;6445;52.490;13.378;2023-06-19T06:56:01;16.80;;;15.13;;
12762;SDS011;6445;52.490;13.378;2023-06-19T06:58:27;17.95;;;16.10;;
12762;SDS011;6445;52.490;13.378;2023-06-19T07:00:53;19.23;;;16.08;;
12762;SDS011;6445;52.490;13.378;2023-06-19T07:03:18;16.60;;;14.95;;
12762;SDS011;6445;52.490;13.378;2023-06-19T07:05:44;18.50;;;15.15;;
12762;SDS011;6445;52.490;13.378;2023-06-19T07:08:09;18.38;;;14.98;;
12762;SDS011;6445;52.490;13.378;2023-06-19T07:10:35;18.30;;;15.45;;
12762;SDS011;6445;52.490;13.378;2023-06-19T07:13:00;16.48;;;14.77;;
12762;SDS011;6445;52.490;13.378;2023-06-19T07:15:25;15.93;;;14.50;;
12762;SDS011;6445;52.490;13.378;2023-06-19T07:17:50;17.15;;;15.45;;
12762;SDS011;6445;52.490;13.378;2023-06-19T07:20:16;16.52;;;14.95;;
12762;SDS011;6445;52.490;13.378;2023-06-19T07:22:42;16.00;;;14.48;;
12762;SDS011;6445;52.490;13.378;2023-06-19T07:25:09;17.05;;;15.45;;
12762;SDS011;6445;52.490;13.378;2023-06-19T07:27:36;16.45;;;14.75;;
12762;SDS011;6445;52.490;13.378;2023-06-19T07:30:01;16.17;;;14.68;;
12762;SDS011;6445;52.490;13.378;2023-06-19T07:32:27;16.48;;;14.85;;
12762;SDS011;6445;52.490;13.378;2023-06-19T07:34:52;17.05;;;15.35;;
12762;SDS011;6445;52.490;13.378;2023-06-19T07:37:18;15.18;;;13.68;;
12762;SDS011;6445;52.490;13.378;2023-06-19T07:39:47;15.40;;;13.90;;
12762;SDS011;6445;52.490;13.378;2023-06-19T07:42:14;15.88;;;14.23;;
12762;SDS011;6445;52.490;13.378;2023-06-19T07:44:40;15.32;;;13.85;;
12762;SDS011;6445;52.490;13.378;2023-06-19T07:47:06;14.45;;;13.05;;
12762;SDS011;6445;52.490;13.378;2023-06-19T07:49:32;14.70;;;13.32;;
12762;SDS011;6445;52.490;13.378;2023-06-19T07:51:58;15.52;;;13.93;;
12762;SDS011;6445;52.490;13.378;2023-06-19T07:54:23;15.88;;;14.45;;
12762;SDS011;6445;52.490;13.378;2023-06-19T07:56:48;16.65;;;13.73;;
12762;SDS011;6445;52.490;13.378;2023-06-19T07:59:14;15.63;;;14.23;;
12762;SDS011;6445;52.490;13.378;2023-06-19T08:01:39;15.27;;;13.75;;
12762;SDS011;6445;52.490;13.378;2023-06-19T08:04:04;14.68;;;13.35;;
12762;SDS011;6445;52.490;13.378;2023-06-19T08:06:30;14.95;;;13.45;;
12762;SDS011;6445;52.490;13.378;2023-06-19T08:08:55;16.25;;;14.50;;
12762;SDS011;6445;52.490;13.378;2023-06-19T08:11:20;16.80;;;15.20;;
12762;SDS011;6445;52.490;13.378;2023-06-19T08:13:45;17.42;;;13.85;;
12762;SDS011;6445;52.490;13.378;2023-06-19T08:16:10;14.40;;;13.10;;
12762;SDS011;6445;52.490;13.378;2023-06-19T08:18:36;14.20;;;12.70;;
12762;SDS011;6445;52.490;13.378;2023-06-19T08:21:01;14.13;;;12.63;;
12762;SDS011;6445;52.490;13.378;2023-06-19T08:23:26;17.00;;;14.95;;
12762;SDS011;6445;52.490;13.378;2023-06-19T08:25:52;16.25;;;13.35;;
12762;SDS011;6445;52.490;13.378;2023-06-19T08:28:17;16.23;;;14.52;;
12762;SDS011;6445;52.490;13.378;2023-06-19T08:30:44;16.90;;;13.63;;
12762;SDS011;6445;52.490;13.378;2023-06-19T08:33:10;14.40;;;13.10;;
12762;SDS011;6445;52.490;13.378;2023-06-19T08:35:35;14.00;;;12.63;;
12762;SDS011;6445;52.490;13.378;2023-06-19T08:38:01;15.05;;;13.55;;
12762;SDS011;6445;52.490;13.378;2023-06-19T08:40:26;15.25;;;13.70;;
12762;SDS011;6445;52.490;13.378;2023-06-19T08:42:51;15.73;;;14.23;;
12762;SDS011;6445;52.490;13.378;2023-06-19T08:45:17;24.17;;;21.10;;
12762;SDS011;6445;52.490;13.378;2023-06-19T08:47:46;14.75;;;13.35;;
12762;SDS011;6445;52.490;13.378;2023-06-19T08:50:12;16.95;;;13.63;;
12762;SDS011;6445;52.490;13.378;2023-06-19T08:52:37;14.40;;;12.48;;
12762;SDS011;6445;52.490;13.378;2023-06-19T08:55:02;14.77;;;13.20;;
12762;SDS011;6445;52.490;13.378;2023-06-19T08:57:37;14.38;;;12.88;;
12762;SDS011;6445;52.490;13.378;2023-06-19T09:00:04;13.88;;;12.57;;
12762;SDS011;6445;52.490;13.378;2023-06-19T09:02:40;14.70;;;13.32;;
12762;SDS011;6445;52.490;13.378;2023-06-19T09:05:16;14.80;;;13.05;;
12762;SDS011;6445;52.490;13.378;2023-06-19T09:07:53;14.00;;;12.60;;
12762;SDS011;6445;52.490;13.378;2023-06-19T09:10:20;14.93;;;13.27;;
12762;SDS011;6445;52.490;13.378;2023-06-19T09:13:04;14.52;;;12.63;;
12762;SDS011;6445;52.490;13.378;2023-06-19T09:18:06;14.10;;;12.45;;
12762;SDS011;6445;52.490;13.378;2023-06-19T09:20:34;13.82;;;12.43;;
12762;SDS011;6445;52.490;13.378;2023-06-19T09:23:08;13.52;;;12.23;;
12762;SDS011;6445;52.490;13.378;2023-06-19T09:25:43;14.18;;;12.77;;
12762;SDS011;6445;52.490;13.378;2023-06-19T09:28:25;13.25;;;12.02;;
12762;SDS011;6445;52.490;13.378;2023-06-19T09:30:58;13.93;;;12.30;;
12762;SDS011;6445;52.490;13.378;2023-06-19T09:33:32;14.50;;;13.07;;
12762;SDS011;6445;52.490;13.378;2023-06-19T09:35:58;13.95;;;12.65;;
12762;SDS011;6445;52.490;13.378;2023-06-19T09:38:30;13.27;;;11.82;;
12762;SDS011;6445;52.490;13.378;2023-06-19T09:41:01;13.45;;;12.07;;
12762;SDS011;6445;52.490;13.378;2023-06-19T09:43:38;13.05;;;11.75;;
12762;SDS011;6445;52.490;13.378;2023-06-19T09:46:07;14.57;;;13.23;;
12762;SDS011;6445;52.490;13.378;2023-06-19T09:48:35;13.95;;;12.60;;
12762;SDS011;6445;52.490;13.378;2023-06-19T09:54:07;13.40;;;12.05;;
12762;SDS011;6445;52.490;13.378;2023-06-19T09:56:34;15.07;;;13.05;;
12762;SDS011;6445;52.490;13.378;2023-06-19T09:59:00;15.35;;;11.85;;
12762;SDS011;6445;52.490;13.378;2023-06-19T10:01:30;14.68;;;13.10;;
12762;SDS011;6445;52.490;13.378;2023-06-19T10:04:03;15.00;;;13.35;;
12762;SDS011;6445;52.490;13.378;2023-06-19T10:06:30;15.10;;;13.60;;
12762;SDS011;6445;52.490;13.378;2023-06-19T10:08:55;14.60;;;13.13;;
12762;SDS011;6445;52.490;13.378;2023-06-19T10:11:43;14.75;;;13.25;;
12762;SDS011;6445;52.490;13.378;2023-06-19T10:14:10;14.18;;;12.88;;
12762;SDS011;6445;52.490;13.378;2023-06-19T10:16:35;14.63;;;13.27;;
12762;SDS011;6445;52.490;13.378;2023-06-19T10:19:10;14.88;;;13.50;;
12762;SDS011;6445;52.490;13.378;2023-06-19T10:22:18;14.57;;;13.27;;
12762;SDS011;6445;52.490;13.378;2023-06-19T10:24:28;14.27;;;12.82;;
12762;SDS011;6445;52.490;13.378;2023-06-19T10:26:58;13.77;;;12.38;;
12762;SDS011;6445;52.490;13.378;2023-06-19T10:29:25;14.95;;;13.45;;
12762;SDS011;6445;52.490;13.378;2023-06-19T10:31:52;16.25;;;13.65;;
12762;SDS011;6445;52.490;13.378;2023-06-19T10:34:17;15.38;;;13.27;;
12762;SDS011;6445;52.490;13.378;2023-06-19T10:36:43;14.45;;;13.02;;
12762;SDS011;6445;52.490;13.378;2023-06-19T10:39:08;15.73;;;13.02;;
12762;SDS011;6445;52.490;13.378;2023-06-19T10:41:34;13.70;;;12.40;;
12762;SDS011;6445;52.490;13.378;2023-06-19T10:44:00;14.13;;;12.73;;
12762;SDS011;6445;52.490;13.378;2023-06-19T10:46:35;14.75;;;13.35;;
12762;SDS011;6445;52.490;13.378;2023-06-19T10:49:01;14.27;;;12.98;;
12762;SDS011;6445;52.490;13.378;2023-06-19T10:51:29;14.07;;;12.82;;
12762;SDS011;6445;52.490;13.378;2023-06-19T10:53:55;14.50;;;12.93;;
12762;SDS011;6445;52.490;13.378;2023-06-19T10:56:22;14.65;;;13.18;;
12762;SDS011;6445;52.490;13.378;2023-06-19T10:58:48;15.18;;;13.32;;
12762;SDS011;6445;52.490;13.378;2023-06-19T11:01:13;14.70;;;13.30;;
12762;SDS011;6445;52.490;13.378;2023-06-19T11:03:39;14.40;;;12.85;;
12762;SDS011;6445;52.490;13.378;2023-06-19T11:06:04;15.93;;;14.32;;
12762;SDS011;6445;52.490;13.378;2023-06-19T11:08:29;14.68;;;13.18;;
12762;SDS011;6445;52.490;13.378;2023-06-19T11:10:55;14.68;;;13.20;;
12762;SDS011;6445;52.490;13.378;2023-06-19T11:13:20;14.15;;;12.73;;
12762;SDS011;6445;52.490;13.378;2023-06-19T11:15:47;15.15;;;12.73;;
12762;SDS011;6445;52.490;13.378;2023-06-19T11:18:16;15.05;;;13.75;;
12762;SDS011;6445;52.490;13.378;2023-06-19T11:20:43;14.52;;;13.13;;
12762;SDS011;6445;52.490;13.378;2023-06-19T11:23:09;14.77;;;13.43;;
12762;SDS011;6445;52.490;13.378;2023-06-19T11:25:37;14.27;;;12.98;;
12762;SDS011;6445;52.490;13.378;2023-06-19T11:28:04;14.43;;;13.10;;
12762;SDS011;6445;52.490;13.378;2023-06-19T11:30:30;14.15;;;12.93;;
12762;SDS011;6445;52.490;13.378;2023-06-19T11:32:59;14.02;;;12.82;;
12762;SDS011;6445;52.490;13.378;2023-06-19T11:35:24;14.70;;;12.85;;
12762;SDS011;6445;52.490;13.378;2023-06-19T11:37:50;14.43;;;13.02;;
12762;SDS011;6445;52.490;13.378;2023-06-19T11:40:16;14.30;;;13.00;;
12762;SDS011;6445;52.490;13.378;2023-06-19T11:42:44;13.27;;;12.07;;
12762;SDS011;6445;52.490;13.378;2023-06-19T11:45:11;13.52;;;12.13;;
12762;SDS011;6445;52.490;13.378;2023-06-19T11:47:36;14.48;;;13.02;;
12762;SDS011;6445;52.490;13.378;2023-06-19T11:50:03;13.82;;;12.43;;
12762;SDS011;6445;52.490;13.378;2023-06-19T11:52:29;13.45;;;12.10;;
12762;SDS011;6445;52.490;13.378;2023-06-19T11:54:55;11.98;;;10.98;;
12762;SDS011;6445;52.490;13.378;2023-06-19T11:57:20;12.00;;;10.77;;
12762;SDS011;6445;52.490;13.378;2023-06-19T11:59:45;11.73;;;10.52;;
12762;SDS011;6445;52.490;13.378;2023-06-19T12:02:11;11.82;;;10.70;;
12762;SDS011;6445;52.490;13.378;2023-06-19T12:04:37;10.77;;;9.85;;
12762;SDS011;6445;52.490;13.378;2023-06-19T12:07:02;11.00;;;9.90;;
12762;SDS011;6445;52.490;13.378;2023-06-19T12:09:29;10.55;;;9.60;;
12762;SDS011;6445;52.490;13.378;2023-06-19T12:11:56;11.25;;;10.23;;
12762;SDS011;6445;52.490;13.378;2023-06-19T12:14:22;11.25;;;10.25;;
12762;SDS011;6445;52.490;13.378;2023-06-19T12:16:49;10.95;;;10.00;;
12762;SDS011;6445;52.490;13.378;2023-06-19T12:19:14;11.32;;;10.32;;
12762;SDS011;6445;52.490;13.378;2023-06-19T12:21:39;11.45;;;10.35;;
12762;SDS011;6445;52.490;13.378;2023-06-19T12:24:05;12.68;;;11.38;;
12762;SDS011;6445;52.490;13.378;2023-06-19T12:26:31;11.85;;;10.75;;
12762;SDS011;6445;52.490;13.378;2023-06-19T12:29:01;11.80;;;10.60;;
12762;SDS011;6445;52.490;13.378;2023-06-19T12:31:28;11.40;;;10.38;;
12762;SDS011;6445;52.490;13.378;2023-06-19T12:33:53;11.20;;;10.20;;
12762;SDS011;6445;52.490;13.378;2023-06-19T12:36:18;11.48;;;10.32;;
12762;SDS011;6445;52.490;13.378;2023-06-19T12:38:44;11.32;;;10.32;;
12762;SDS011;6445;52.490;13.378;2023-06-19T12:41:09;11.35;;;10.35;;
12762;SDS011;6445;52.490;13.378;2023-06-19T12:43:34;13.15;;;10.90;;
12762;SDS011;6445;52.490;13.378;2023-06-19T12:46:00;11.90;;;10.70;;
12762;SDS011;6445;52.490;13.378;2023-06-19T12:48:26;12.00;;;10.90;;
12762;SDS011;6445;52.490;13.378;2023-06-19T12:50:51;11.60;;;10.40;;
12762;SDS011;6445;52.490;13.378;2023-06-19T12:53:16;11.40;;;10.30;;
12762;SDS011;6445;52.490;13.378;2023-06-19T12:55:42;12.13;;;10.93;;
12762;SDS011;6445;52.490;13.378;2023-06-19T12:58:07;11.48;;;10.32;;
12762;SDS011;6445;52.490;13.378;2023-06-19T13:00:33;11.30;;;10.30;;
12762;SDS011;6445;52.490;13.378;2023-06-19T13:02:58;10.85;;;9.80;;
12762;SDS011;6445;52.490;13.378;2023-06-19T13:05:24;10.68;;;9.75;;
12762;SDS011;6445;52.490;13.378;2023-06-19T13:07:49;11.20;;;9.90;;
12762;SDS011;6445;52.490;13.378;2023-06-19T13:10:14;10.60;;;9.70;;
12762;SDS011;6445;52.490;13.378;2023-06-19T13:12:39;11.30;;;10.20;;
12762;SDS011;6445;52.490;13.378;2023-06-19T13:15:05;11.60;;;10.50;;
12762;SDS011;6445;52.490;13.378;2023-06-19T13:17:31;11.27;;;10.30;;
12762;SDS011;6445;52.490;13.378;2023-06-19T13:19:56;12.50;;;11.30;;
12762;SDS011;6445;52.490;13.378;2023-06-19T13:22:22;12.63;;;11.52;;
12762;SDS011;6445;52.490;13.378;2023-06-19T13:24:47;12.60;;;11.30;;
12762;SDS011;6445;52.490;13.378;2023-06-19T13:27:13;14.10;;;12.65;;
12762;SDS011;6445;52.490;13.378;2023-06-19T13:29:38;13.02;;;11.73;;
12762;SDS011;6445;52.490;13.378;2023-06-19T13:32:05;13.20;;;12.00;;
12762;SDS011;6445;52.490;13.378;2023-06-19T13:34:31;13.35;;;11.90;;
12762;SDS011;6445;52.490;13.378;2023-06-19T13:36:56;13.00;;;11.70;;
12762;SDS011;6445;52.490;13.378;2023-06-19T13:39:21;12.80;;;11.65;;
12762;SDS011;6445;52.490;13.378;2023-06-19T13:41:47;13.90;;;12.52;;
12762;SDS011;6445;52.490;13.378;2023-06-19T13:44:12;14.05;;;12.75;;
12762;SDS011;6445;52.490;13.378;2023-06-19T13:46:38;13.38;;;12.18;;
12762;SDS011;6445;52.490;13.378;2023-06-19T13:49:03;13.05;;;11.95;;
12762;SDS011;6445;52.490;13.378;2023-06-19T13:51:29;14.10;;;12.50;;
12762;SDS011;6445;52.490;13.378;2023-06-19T13:53:54;13.82;;;12.55;;
12762;SDS011;6445;52.490;13.378;2023-06-19T13:56:19;14.93;;;13.52;;
12762;SDS011;6445;52.490;13.378;2023-06-19T13:58:45;14.40;;;12.90;;
12762;SDS011;6445;52.490;13.378;2023-06-19T14:01:10;13.90;;;12.27;;
12762;SDS011;6445;52.490;13.378;2023-06-19T14:03:37;13.73;;;12.32;;
12762;SDS011;6445;52.490;13.378;2023-06-19T14:06:04;14.70;;;13.23;;
12762;SDS011;6445;52.490;13.378;2023-06-19T14:08:29;13.98;;;12.57;;
12762;SDS011;6445;52.490;13.378;2023-06-19T14:10:54;14.88;;;13.30;;
12762;SDS011;6445;52.490;13.378;2023-06-19T14:13:20;13.70;;;12.48;;
12762;SDS011;6445;52.490;13.378;2023-06-19T14:15:45;13.95;;;12.65;;
12762;SDS011;6445;52.490;13.378;2023-06-19T14:18:10;14.30;;;12.98;;
12762;SDS011;6445;52.490;13.378;2023-06-19T14:20:35;12.27;;;11.18;;
12762;SDS011;6445;52.490;13.378;2023-06-19T14:23:01;13.38;;;12.18;;
12762;SDS011;6445;52.490;13.378;2023-06-19T14:25:26;13.38;;;12.07;;